createdAt,value
2018-05-27T00:00:22.776Z,999.90
2018-05-27T00:01:22.780Z,999.90
2018-05-27T00:02:22.783Z,999.90
2018-05-27T00:03:22.785Z,999.90
2018-05-27T00:04:22.789Z,999.90
2018-05-27T00:05:22.790Z,942.40
2018-05-27T00:06:22.793Z,126.10
2018-05-27T00:07:22.797Z,136.50
2018-05-27T00:08:22.801Z,34.70
2018-05-27T00:09:22.803Z,22.50
2018-05-27T00:10:22.806Z,12.60
2018-05-27T00:11:22.810Z,14.50
2018-05-27T00:12:22.813Z,15.70
2018-05-27T00:13:22.818Z,18.50
2018-05-27T00:14:22.823Z,17.10
2018-05-27T00:15:22.825Z,20.70
2018-05-27T00:16:22.825Z,20.70
2018-05-27T00:17:22.828Z,65.90
2018-05-27T00:18:22.829Z,51.80
2018-05-27T00:19:22.837Z,248.30
2018-05-27T00:20:22.835Z,53.80
2018-05-27T00:21:22.841Z,10.80
2018-05-27T00:22:22.842Z,8.80
2018-05-27T00:23:22.848Z,10.20
2018-05-27T00:24:22.850Z,61.10
2018-05-27T00:25:22.851Z,202.70
2018-05-27T00:26:22.854Z,933.90
2018-05-27T00:27:22.856Z,620.10
2018-05-27T00:28:22.861Z,190.20
2018-05-27T00:29:22.864Z,584.10
2018-05-27T00:30:22.867Z,329.90
2018-05-27T00:31:22.869Z,456.00
2018-05-27T00:32:22.873Z,434.90
2018-05-27T00:33:22.876Z,820.60
2018-05-27T00:34:22.878Z,863.60
2018-05-27T00:36:22.883Z,845.50
2018-05-27T00:37:22.888Z,999.90
2018-05-27T00:38:22.889Z,999.90
2018-05-27T00:39:22.932Z,999.90
2018-05-27T00:40:22.895Z,999.90
2018-05-27T00:41:22.898Z,999.90
2018-05-27T00:42:22.900Z,999.90
2018-05-27T00:43:22.904Z,999.90
2018-05-27T00:44:22.907Z,999.90
2018-05-27T00:45:22.909Z,999.90
2018-05-27T00:46:22.913Z,999.90
2018-05-27T00:47:22.914Z,999.90
2018-05-27T00:48:22.917Z,999.90
2018-05-27T00:49:22.920Z,999.90
2018-05-27T00:50:22.923Z,999.90
2018-05-27T00:51:22.925Z,999.90
2018-05-27T00:52:22.928Z,999.90
2018-05-27T00:53:22.931Z,999.90
2018-05-27T00:54:22.934Z,999.90
2018-05-27T00:55:22.937Z,999.90
2018-05-27T00:56:22.940Z,999.90
2018-05-27T00:57:22.943Z,999.90
2018-05-27T00:58:22.945Z,999.90
2018-05-27T00:59:22.946Z,999.90
2018-05-27T01:00:22.951Z,999.90
2018-05-27T01:01:22.953Z,999.90
2018-05-27T01:02:22.956Z,999.90
2018-05-27T01:03:22.957Z,999.90
2018-05-27T01:04:22.961Z,999.90
2018-05-27T01:05:22.964Z,999.90
2018-05-27T01:06:23.007Z,984.00
2018-05-27T01:07:22.968Z,999.90
2018-05-27T01:08:22.971Z,999.90
2018-05-27T01:09:22.973Z,930.10
2018-05-27T01:10:22.975Z,999.90
2018-05-27T01:11:22.978Z,999.90
2018-05-27T01:12:22.982Z,968.20
2018-05-27T01:13:22.983Z,901.40
2018-05-27T01:14:22.986Z,928.80
2018-05-27T01:15:22.988Z,999.90
2018-05-27T01:16:22.990Z,999.90
2018-05-27T01:17:22.994Z,999.90
2018-05-27T01:18:22.995Z,999.90
2018-05-27T01:19:22.997Z,999.90
2018-05-27T01:20:23.002Z,999.90
2018-05-27T01:21:23.004Z,999.90
2018-05-27T01:22:23.004Z,999.90
2018-05-27T01:23:23.009Z,999.90
2018-05-27T01:24:23.009Z,999.90
2018-05-27T01:25:23.012Z,999.90
2018-05-27T01:26:23.014Z,999.90
2018-05-27T01:27:23.017Z,999.90
2018-05-27T01:28:23.020Z,999.90
2018-05-27T01:29:23.022Z,999.90
2018-05-27T01:30:23.023Z,999.90
2018-05-27T01:31:23.027Z,999.90
2018-05-27T01:32:23.029Z,999.90
2018-05-27T01:33:23.032Z,999.90
2018-05-27T01:34:23.033Z,999.90
2018-05-27T01:35:23.037Z,999.90
2018-05-27T01:36:23.038Z,999.90
2018-05-27T01:37:23.041Z,999.90
2018-05-27T01:38:23.042Z,999.90
2018-05-27T01:39:23.050Z,999.90
2018-05-27T01:40:23.048Z,999.90
2018-05-27T01:41:23.051Z,999.90
2018-05-27T01:42:23.053Z,999.90
2018-05-27T01:43:23.056Z,999.90
2018-05-27T01:44:23.057Z,999.90
2018-05-27T01:45:23.061Z,999.90
2018-05-27T01:46:23.061Z,999.90
2018-05-27T01:47:23.066Z,999.90
2018-05-27T01:48:23.067Z,999.90
2018-05-27T01:49:23.069Z,999.90
2018-05-27T01:50:23.071Z,999.90
2018-05-27T01:51:23.076Z,999.90
2018-05-27T01:52:23.076Z,999.90
2018-05-27T01:53:23.079Z,999.90
2018-05-27T01:54:23.081Z,999.90
2018-05-27T01:55:23.083Z,999.90
2018-05-27T01:56:23.089Z,999.90
2018-05-27T01:57:23.092Z,999.90
2018-05-27T01:58:23.089Z,999.90
2018-05-27T01:59:23.092Z,999.90
2018-05-27T02:00:23.094Z,999.90
2018-05-27T02:01:23.098Z,999.90
2018-05-27T02:02:23.099Z,999.90
2018-05-27T02:03:23.100Z,999.90
2018-05-27T02:04:23.103Z,999.90
2018-05-27T02:05:23.107Z,999.90
2018-05-27T02:06:23.107Z,999.90
2018-05-27T02:07:23.111Z,999.90
2018-05-27T02:08:23.112Z,999.90
2018-05-27T02:09:23.116Z,999.90
2018-05-27T02:10:23.120Z,999.90
2018-05-27T02:11:23.120Z,999.90
2018-05-27T02:12:23.121Z,999.90
2018-05-27T02:13:23.125Z,999.90
2018-05-27T02:14:23.125Z,999.90
2018-05-27T02:15:23.128Z,999.90
2018-05-27T02:16:23.134Z,999.90
2018-05-27T02:17:23.132Z,999.90
2018-05-27T02:18:23.133Z,999.90
2018-05-27T02:19:23.137Z,999.90
2018-05-27T02:20:23.141Z,999.90
2018-05-27T02:21:23.140Z,999.90
2018-05-27T02:22:23.142Z,999.90
2018-05-27T02:23:23.145Z,999.90
2018-05-27T02:24:23.148Z,999.90
2018-05-27T02:25:23.149Z,999.90
2018-05-27T02:26:23.152Z,999.90
2018-05-27T02:27:23.153Z,998.80
2018-05-27T02:28:23.156Z,935.00
2018-05-27T02:29:23.162Z,963.80
2018-05-27T02:30:23.160Z,977.80
2018-05-27T02:31:23.164Z,807.60
2018-05-27T02:32:23.172Z,777.10
2018-05-27T02:33:23.169Z,763.00
2018-05-27T02:34:23.168Z,784.40
2018-05-27T02:35:23.169Z,741.00
2018-05-27T02:36:23.172Z,725.90
2018-05-27T02:37:23.173Z,750.20
2018-05-27T02:38:23.175Z,751.70
2018-05-27T02:39:23.177Z,746.80
2018-05-27T02:40:23.181Z,711.90
2018-05-27T02:41:23.183Z,674.60
2018-05-27T02:42:23.183Z,729.90
2018-05-27T02:43:23.185Z,621.60
2018-05-27T02:44:23.188Z,426.50
2018-05-27T02:45:23.191Z,374.90
2018-05-27T02:46:23.191Z,487.80
2018-05-27T02:47:23.193Z,523.00
2018-05-27T02:48:23.195Z,490.40
2018-05-27T02:49:23.198Z,250.20
2018-05-27T02:50:23.203Z,38.90
2018-05-27T02:51:23.202Z,28.30
2018-05-27T02:52:23.203Z,33.00
2018-05-27T02:53:23.207Z,76.10
2018-05-27T02:54:23.206Z,120.00
2018-05-27T02:55:23.207Z,252.80
2018-05-27T02:56:23.210Z,458.50
2018-05-27T02:57:23.212Z,590.20
2018-05-27T02:58:23.216Z,553.70
2018-05-27T02:59:23.217Z,407.60
2018-05-27T03:00:23.218Z,380.00
2018-05-27T03:01:23.223Z,378.90
2018-05-27T03:02:23.221Z,78.50
2018-05-27T03:03:23.223Z,237.10
2018-05-27T03:04:23.224Z,312.30
2018-05-27T03:05:23.231Z,155.50
2018-05-27T03:06:23.231Z,353.70
2018-05-27T03:07:23.229Z,409.00
2018-05-27T03:08:23.232Z,412.30
2018-05-27T03:09:23.234Z,140.20
2018-05-27T03:10:23.236Z,81.60
2018-05-27T03:11:23.238Z,242.20
2018-05-27T03:12:23.244Z,236.20
2018-05-27T03:13:23.255Z,218.80
2018-05-27T03:14:23.244Z,251.00
2018-05-27T03:15:23.244Z,95.00
2018-05-27T03:16:23.246Z,114.80
2018-05-27T03:17:23.250Z,220.50
2018-05-27T03:18:23.250Z,47.40
2018-05-27T03:19:23.252Z,41.20
2018-05-27T03:20:23.252Z,127.20
2018-05-27T03:21:23.262Z,197.30
2018-05-27T03:22:23.255Z,248.70
2018-05-27T03:23:23.257Z,375.50
2018-05-27T03:24:23.260Z,192.10
2018-05-27T03:25:23.262Z,116.50
2018-05-27T03:26:23.263Z,138.80
2018-05-27T03:27:23.266Z,304.90
2018-05-27T03:28:23.266Z,319.80
2018-05-27T03:29:23.268Z,180.40
2018-05-27T03:30:23.269Z,146.20
2018-05-27T03:31:23.273Z,50.00
2018-05-27T03:32:23.273Z,37.50
2018-05-27T03:33:23.276Z,42.80
2018-05-27T03:34:23.277Z,23.90
2018-05-27T03:35:23.281Z,143.60
2018-05-27T03:36:23.302Z,46.00
2018-05-27T03:37:23.282Z,142.00
2018-05-27T03:38:23.283Z,106.80
2018-05-27T03:39:23.286Z,136.70
2018-05-27T03:40:23.288Z,91.30
2018-05-27T03:41:23.291Z,16.50
2018-05-27T03:42:23.291Z,71.90
2018-05-27T03:43:23.291Z,102.20
2018-05-27T03:44:23.294Z,77.90
2018-05-27T03:45:23.296Z,53.50
2018-05-27T03:46:23.298Z,91.70
2018-05-27T03:47:23.299Z,30.20
2018-05-27T03:48:23.301Z,12.60
2018-05-27T03:49:23.302Z,12.30
2018-05-27T03:50:23.306Z,7.10
2018-05-27T03:51:23.305Z,8.80
2018-05-27T03:52:23.311Z,9.30
2018-05-27T03:53:23.309Z,6.40
2018-05-27T03:54:23.309Z,5.00
2018-05-27T03:55:23.312Z,5.10
2018-05-27T03:56:23.315Z,5.00
2018-05-27T03:57:23.315Z,4.30
2018-05-27T03:58:23.316Z,5.40
2018-05-27T03:59:23.318Z,5.10
2018-05-27T04:00:23.322Z,4.50
2018-05-27T04:01:23.323Z,5.30
2018-05-27T04:02:23.324Z,4.90
2018-05-27T04:03:23.325Z,4.90
2018-05-27T04:04:23.327Z,4.80
2018-05-27T04:05:23.333Z,4.50
2018-05-27T04:06:23.330Z,5.00
2018-05-27T04:07:23.333Z,5.50
2018-05-27T04:08:23.334Z,5.10
2018-05-27T04:09:23.337Z,4.40
2018-05-27T04:10:23.336Z,5.50
2018-05-27T04:11:23.338Z,4.90
2018-05-27T04:12:23.340Z,4.50
2018-05-27T04:13:23.347Z,4.20
2018-05-27T04:14:23.343Z,4.60
2018-05-27T04:15:23.344Z,4.70
2018-05-27T04:16:23.346Z,4.90
2018-05-27T04:17:23.352Z,5.10
2018-05-27T04:18:23.350Z,4.50
2018-05-27T04:19:23.352Z,5.00
2018-05-27T04:20:23.354Z,4.40
2018-05-27T04:21:23.354Z,5.10
2018-05-27T04:22:23.355Z,4.40
2018-05-27T04:23:23.359Z,5.00
2018-05-27T04:24:23.360Z,5.10
2018-05-27T04:25:23.361Z,5.10
2018-05-27T04:26:23.362Z,4.80
2018-05-27T04:27:23.363Z,5.00
2018-05-27T04:28:23.439Z,4.90
2018-05-27T04:29:23.368Z,4.20
2018-05-27T04:30:23.369Z,4.20
2018-05-27T04:31:23.370Z,4.90
2018-05-27T04:32:23.373Z,4.80
2018-05-27T04:33:23.374Z,4.70
2018-05-27T04:34:23.374Z,4.70
2018-05-27T04:35:23.376Z,4.70
2018-05-27T04:36:23.380Z,4.50
2018-05-27T04:37:23.381Z,4.80
2018-05-27T04:38:23.381Z,4.80
2018-05-27T04:39:23.382Z,5.10
2018-05-27T04:40:23.386Z,4.70
2018-05-27T04:41:23.387Z,4.50
2018-05-27T04:42:23.387Z,4.60
2018-05-27T04:43:23.391Z,4.40
2018-05-27T04:44:23.394Z,4.80
2018-05-27T04:45:23.393Z,4.40
2018-05-27T04:46:23.396Z,4.40
2018-05-27T04:47:23.398Z,4.20
2018-05-27T04:48:23.399Z,4.10
2018-05-27T04:49:23.402Z,4.70
2018-05-27T04:50:23.402Z,4.10
2018-05-27T04:51:23.404Z,4.70
2018-05-27T04:52:23.407Z,5.20
2018-05-27T04:53:23.409Z,4.80
2018-05-27T04:54:23.416Z,4.60
2018-05-27T04:55:23.415Z,4.90
2018-05-27T04:56:23.413Z,4.70
2018-05-27T04:57:23.416Z,4.70
2018-05-27T04:58:23.420Z,4.30
2018-05-27T04:59:23.427Z,4.20
2018-05-27T05:00:23.421Z,4.10
2018-05-27T05:01:23.424Z,4.40
2018-05-27T05:02:23.427Z,4.40
2018-05-27T05:03:23.428Z,4.00
2018-05-27T05:04:23.430Z,4.20
2018-05-27T05:05:23.436Z,4.20
2018-05-27T05:06:23.434Z,4.10
2018-05-27T05:07:23.441Z,3.90
2018-05-27T05:08:23.437Z,4.10
2018-05-27T05:09:23.454Z,4.80
2018-05-27T05:10:23.440Z,4.10
2018-05-27T05:11:23.443Z,4.30
2018-05-27T05:12:23.446Z,4.40
2018-05-27T05:13:23.449Z,4.10
2018-05-27T05:14:23.451Z,4.70
2018-05-27T05:15:23.452Z,4.30
2018-05-27T05:16:23.455Z,3.60
2018-05-27T05:17:23.459Z,4.40
2018-05-27T05:18:23.460Z,4.30
2018-05-27T05:19:23.463Z,3.90
2018-05-27T05:20:23.465Z,4.40
2018-05-27T05:21:23.467Z,3.90
2018-05-27T05:22:23.468Z,4.40
2018-05-27T05:23:23.470Z,4.70
2018-05-27T05:24:23.530Z,4.20
2018-05-27T05:25:23.476Z,4.30
2018-05-27T05:26:23.481Z,4.80
2018-05-27T05:27:23.482Z,4.00
2018-05-27T05:28:23.486Z,4.60
2018-05-27T05:29:23.486Z,4.30
2018-05-27T05:30:23.488Z,4.70
2018-05-27T05:31:23.490Z,4.60
2018-05-27T05:32:23.495Z,4.20
2018-05-27T05:33:23.496Z,4.40
2018-05-27T05:34:23.499Z,4.30
2018-05-27T05:35:23.504Z,5.10
2018-05-27T05:36:23.527Z,4.70
2018-05-27T05:37:23.507Z,4.50
2018-05-27T05:38:23.509Z,4.60
2018-05-27T05:39:23.513Z,4.60
2018-05-27T05:40:23.517Z,3.60
2018-05-27T05:41:23.518Z,4.80
2018-05-27T05:42:23.521Z,4.60
2018-05-27T05:43:23.524Z,4.80
2018-05-27T05:44:23.525Z,4.70
2018-05-27T05:45:23.530Z,4.80
2018-05-27T05:46:23.532Z,4.80
2018-05-27T05:47:23.535Z,5.00
2018-05-27T05:48:23.540Z,4.40
2018-05-27T05:49:23.617Z,4.40
2018-05-27T05:50:23.543Z,4.20
2018-05-27T05:51:23.548Z,4.70
2018-05-27T05:52:23.551Z,4.40
2018-05-27T05:53:23.552Z,4.60
2018-05-27T05:54:23.554Z,4.90
2018-05-27T05:55:23.560Z,4.70
2018-05-27T05:56:23.560Z,5.10
2018-05-27T05:57:23.563Z,4.90
2018-05-27T05:58:23.567Z,4.20
2018-05-27T05:59:23.569Z,4.20
2018-05-27T06:00:23.573Z,4.50
2018-05-27T06:01:23.576Z,4.50
2018-05-27T06:02:23.582Z,4.20
2018-05-27T06:03:23.581Z,4.50
2018-05-27T06:04:23.587Z,4.10
2018-05-27T06:05:23.588Z,5.20
2018-05-27T06:06:23.590Z,4.10
2018-05-27T06:07:23.595Z,4.30
2018-05-27T06:08:23.597Z,4.50
2018-05-27T06:09:23.601Z,5.10
2018-05-27T06:10:23.603Z,4.60
2018-05-27T06:11:23.607Z,4.60
2018-05-27T06:12:23.611Z,4.80
2018-05-27T06:13:23.615Z,4.20
2018-05-27T06:14:23.617Z,4.90
2018-05-27T06:15:23.620Z,4.30
2018-05-27T06:16:23.624Z,4.50
2018-05-27T06:17:23.628Z,4.40
2018-05-27T06:18:23.629Z,4.50
2018-05-27T06:19:23.635Z,4.60
2018-05-27T06:20:23.638Z,4.60
2018-05-27T06:21:23.648Z,4.40
2018-05-27T06:22:23.644Z,5.10
2018-05-27T06:23:23.648Z,4.80
2018-05-27T06:24:23.651Z,4.50
2018-05-27T06:25:23.655Z,5.30
2018-05-27T06:26:23.658Z,5.10
2018-05-27T06:27:23.663Z,5.40
2018-05-27T06:28:23.666Z,4.20
2018-05-27T06:29:23.671Z,999.90
2018-05-27T06:30:23.674Z,999.90
2018-05-27T06:31:23.679Z,999.90
2018-05-27T06:32:23.689Z,999.90
2018-05-27T06:33:23.685Z,999.90
2018-05-27T06:34:23.690Z,999.90
2018-05-27T06:35:23.694Z,999.90
2018-05-27T06:36:23.697Z,999.90
2018-05-27T06:37:23.703Z,999.90
2018-05-27T06:38:23.706Z,999.90
2018-05-27T06:39:23.710Z,999.90
2018-05-27T06:40:23.715Z,610.50
2018-05-27T06:41:23.718Z,39.50
2018-05-27T06:42:23.721Z,349.70
2018-05-27T06:43:23.726Z,491.40
2018-05-27T06:44:23.730Z,999.90
2018-05-27T06:45:23.737Z,999.90
2018-05-27T06:46:23.743Z,873.80
2018-05-27T06:47:23.745Z,907.70
2018-05-27T06:48:23.747Z,851.50
2018-05-27T06:49:23.753Z,760.00
2018-05-27T06:50:23.756Z,11.30
2018-05-27T06:51:23.763Z,4.50
2018-05-27T06:52:23.765Z,4.50
2018-05-27T06:53:23.769Z,4.50
2018-05-27T06:54:23.774Z,4.50
2018-05-27T06:55:23.780Z,15.80
2018-05-27T06:56:23.788Z,38.00
2018-05-27T06:57:23.787Z,783.60
2018-05-27T06:58:23.792Z,15.60
2018-05-27T06:59:23.797Z,4.60
2018-05-27T07:00:23.801Z,10.60
2018-05-27T07:01:23.807Z,999.90
2018-05-27T07:02:23.812Z,24.90
2018-05-27T07:03:23.814Z,5.00
2018-05-27T07:04:23.846Z,524.30
2018-05-27T07:05:23.823Z,70.00
2018-05-27T07:06:23.825Z,620.60
2018-05-27T07:07:23.831Z,948.10
2018-05-27T07:08:23.836Z,999.90
2018-05-27T07:09:23.841Z,999.90
2018-05-27T07:10:23.843Z,999.90
2018-05-27T07:11:23.848Z,999.90
2018-05-27T07:12:23.853Z,999.90
2018-05-27T07:13:23.858Z,999.90
2018-05-27T07:14:23.862Z,999.90
2018-05-27T07:15:23.867Z,454.80
2018-05-27T07:16:23.872Z,505.60
2018-05-27T07:17:23.877Z,999.90
2018-05-27T07:18:23.881Z,999.90
2018-05-27T07:19:23.886Z,65.30
2018-05-27T07:20:23.935Z,19.70
2018-05-27T07:21:23.894Z,4.10
2018-05-27T07:22:23.899Z,20.60
2018-05-27T07:23:23.902Z,97.90
2018-05-27T07:24:23.908Z,12.60
2018-05-27T07:25:23.913Z,4.40
2018-05-27T07:26:23.916Z,4.60
2018-05-27T07:27:23.922Z,16.80
2018-05-27T07:28:23.926Z,246.10
2018-05-27T07:29:23.930Z,13.50
2018-05-27T07:30:23.937Z,14.50
2018-05-27T07:31:23.939Z,115.20
2018-05-27T07:32:23.944Z,82.90
2018-05-27T07:33:23.949Z,389.20
2018-05-27T07:34:23.952Z,822.40
2018-05-27T07:35:23.965Z,744.80
2018-05-27T07:36:23.963Z,174.60
2018-05-27T07:37:23.967Z,7.90
2018-05-27T07:38:23.973Z,4.40
2018-05-27T07:39:23.978Z,4.70
2018-05-27T07:40:23.981Z,10.60
2018-05-27T07:41:23.992Z,4.50
2018-05-27T07:42:23.991Z,4.30
2018-05-27T07:43:23.997Z,4.90
2018-05-27T07:44:24.001Z,4.10
2018-05-27T07:45:24.007Z,4.00
2018-05-27T07:46:24.036Z,4.10
2018-05-27T07:47:24.017Z,3.80
2018-05-27T07:48:24.022Z,5.80
2018-05-27T07:49:24.027Z,7.10
2018-05-27T07:50:24.033Z,4.90
2018-05-27T07:51:24.038Z,3.90
2018-05-27T07:52:24.043Z,4.00
2018-05-27T07:53:24.048Z,3.80
2018-05-27T07:54:24.053Z,4.60
2018-05-27T07:55:24.061Z,4.20
2018-05-27T07:56:24.066Z,4.00
2018-05-27T07:57:24.072Z,4.50
2018-05-27T07:58:24.101Z,4.20
2018-05-27T07:59:24.082Z,4.00
2018-05-27T08:00:24.089Z,3.90
2018-05-27T08:01:24.093Z,4.00
2018-05-27T08:02:24.099Z,4.10
2018-05-27T08:03:24.106Z,4.30
2018-05-27T08:04:24.115Z,4.10
2018-05-27T08:05:24.119Z,3.70
2018-05-27T08:06:24.124Z,4.00
2018-05-27T08:07:24.132Z,3.60
2018-05-27T08:08:24.140Z,4.00
2018-05-27T08:09:24.147Z,3.40
2018-05-27T08:10:24.152Z,3.90
2018-05-27T08:11:24.160Z,4.00
2018-05-27T08:12:24.168Z,3.70
2018-05-27T08:13:24.178Z,3.50
2018-05-27T08:14:24.185Z,4.00
2018-05-27T08:15:24.193Z,4.20
2018-05-27T08:16:24.202Z,3.90
2018-05-27T08:17:24.214Z,4.00
2018-05-27T08:18:24.218Z,3.50
2018-05-27T08:19:24.226Z,3.50
2018-05-27T08:20:24.238Z,4.10
2018-05-27T08:21:24.245Z,3.30
2018-05-27T08:22:24.252Z,3.20
2018-05-27T08:23:24.266Z,3.10
2018-05-27T08:24:24.274Z,3.30
2018-05-27T08:25:24.280Z,3.40
2018-05-27T08:26:24.288Z,3.70
2018-05-27T08:27:24.298Z,3.90
2018-05-27T08:28:24.308Z,3.50
2018-05-27T08:29:24.318Z,3.60
2018-05-27T08:30:24.324Z,3.30
2018-05-27T08:31:24.336Z,3.40
2018-05-27T08:32:24.346Z,3.80
2018-05-27T08:33:24.355Z,3.60
2018-05-27T08:34:24.364Z,3.40
2018-05-27T08:35:24.373Z,3.10
2018-05-27T08:36:24.386Z,3.00
2018-05-27T08:37:24.393Z,3.50
2018-05-27T08:38:24.403Z,3.10
2018-05-27T08:39:24.412Z,3.10
2018-05-27T08:40:24.426Z,2.80
2018-05-27T08:41:24.434Z,3.50
2018-05-27T08:42:24.442Z,3.30
2018-05-27T08:43:24.470Z,3.40
2018-05-27T08:44:24.463Z,4.00
2018-05-27T08:45:24.471Z,3.30
2018-05-27T08:46:24.482Z,4.00
2018-05-27T08:47:24.491Z,3.30
2018-05-27T08:48:24.507Z,3.80
2018-05-27T08:49:24.516Z,3.00
2018-05-27T08:50:24.523Z,3.50
2018-05-27T08:51:24.544Z,3.20
2018-05-27T08:52:24.544Z,2.90
2018-05-27T08:53:24.605Z,3.60
2018-05-27T08:54:24.567Z,2.90
2018-05-27T08:55:24.577Z,2.60
2018-05-27T08:56:24.590Z,3.60
2018-05-27T08:57:24.648Z,2.90
2018-05-27T08:58:24.615Z,3.50
2018-05-27T08:59:24.624Z,3.40
2018-05-27T09:00:24.637Z,3.10
2018-05-27T09:01:24.678Z,3.00
2018-05-27T09:02:24.659Z,3.20
2018-05-27T09:03:24.671Z,3.40
2018-05-27T09:04:24.685Z,2.50
2018-05-27T09:05:24.698Z,3.50
2018-05-27T09:06:24.946Z,3.30
2018-05-27T09:07:24.723Z,2.80
2018-05-27T09:08:24.735Z,3.30
2018-05-27T09:09:24.748Z,3.00
2018-05-27T09:10:24.758Z,3.20
2018-05-27T09:11:24.778Z,3.10
2018-05-27T09:12:24.785Z,2.90
2018-05-27T09:13:24.798Z,3.30
2018-05-27T09:14:24.809Z,3.40
2018-05-27T09:15:24.908Z,3.60
2018-05-27T09:16:24.834Z,3.30
2018-05-27T09:17:24.847Z,3.70
2018-05-27T09:18:24.860Z,3.10
2018-05-27T09:19:24.869Z,3.90
2018-05-27T09:20:24.879Z,3.20
2018-05-27T09:21:24.891Z,3.30
2018-05-27T09:22:24.905Z,3.50
2018-05-27T09:23:24.914Z,3.20
2018-05-27T09:24:24.925Z,3.30
2018-05-27T09:25:24.937Z,3.20
2018-05-27T09:26:24.951Z,3.90
2018-05-27T09:27:24.960Z,3.60
2018-05-27T09:28:24.972Z,3.20
2018-05-27T09:29:24.985Z,4.00
2018-05-27T09:30:24.998Z,3.30
2018-05-27T09:31:25.006Z,3.00
2018-05-27T09:32:25.019Z,3.60
2018-05-27T09:33:25.031Z,3.80
2018-05-27T09:34:25.043Z,3.60
2018-05-27T09:35:25.055Z,3.60
2018-05-27T09:36:25.067Z,3.80
2018-05-27T09:37:25.078Z,3.40
2018-05-27T09:38:25.091Z,3.70
2018-05-27T09:39:25.104Z,3.50
2018-05-27T09:40:25.114Z,3.00
2018-05-27T09:41:25.125Z,3.40
2018-05-27T09:42:25.136Z,2.70
2018-05-27T09:43:25.148Z,3.30
2018-05-27T09:44:25.158Z,3.70
2018-05-27T09:45:25.265Z,3.40
2018-05-27T09:46:25.180Z,3.60
2018-05-27T09:47:25.195Z,3.70
2018-05-27T09:48:25.202Z,3.30
2018-05-27T09:49:25.215Z,3.60
2018-05-27T09:50:25.223Z,3.80
2018-05-27T09:51:25.287Z,3.30
2018-05-27T09:52:25.245Z,3.40
2018-05-27T09:53:25.253Z,3.60
2018-05-27T09:54:25.263Z,3.70
2018-05-27T09:55:25.272Z,4.00
2018-05-27T09:56:25.283Z,3.90
2018-05-27T09:57:25.292Z,3.30
2018-05-27T09:58:25.301Z,3.20
2018-05-27T09:59:25.324Z,3.50
2018-05-27T10:00:25.321Z,3.60
2018-05-27T10:01:25.329Z,3.90
2018-05-27T10:02:25.338Z,3.90
2018-05-27T10:03:25.349Z,4.00
2018-05-27T10:04:25.355Z,3.70
2018-05-27T10:05:25.366Z,4.30
2018-05-27T10:06:25.376Z,3.50
2018-05-27T10:07:25.384Z,3.40
2018-05-27T10:08:25.389Z,4.10
2018-05-27T10:09:25.399Z,4.00
2018-05-27T10:10:25.407Z,3.70
2018-05-27T10:11:25.414Z,2.90
2018-05-27T10:12:25.424Z,3.50
2018-05-27T10:13:25.432Z,3.50
2018-05-27T10:14:25.440Z,3.50
2018-05-27T10:15:25.450Z,4.50
2018-05-27T10:16:25.458Z,3.80
2018-05-27T10:17:25.466Z,3.70
2018-05-27T10:18:25.475Z,4.50
2018-05-27T10:19:25.521Z,4.30
2018-05-27T10:20:25.490Z,3.70
2018-05-27T10:21:26.649Z,3.70
2018-05-27T10:22:25.507Z,3.70
2018-05-27T10:23:25.515Z,3.00
2018-05-27T10:24:25.527Z,3.30
2018-05-27T10:25:25.532Z,3.60
2018-05-27T10:26:25.540Z,3.60
2018-05-27T10:27:25.550Z,4.30
2018-05-27T10:28:25.557Z,3.80
2018-05-27T10:29:25.565Z,4.00
2018-05-27T10:30:25.572Z,4.10
2018-05-27T10:31:25.585Z,4.00
2018-05-27T10:32:25.590Z,4.30
2018-05-27T10:33:25.598Z,3.60
2018-05-27T10:34:25.605Z,4.00
2018-05-27T10:35:25.615Z,3.90
2018-05-27T10:36:25.622Z,3.40
2018-05-27T10:37:25.633Z,9.30
2018-05-27T10:38:25.638Z,9.80
2018-05-27T10:39:25.649Z,4.10
2018-05-27T10:40:25.657Z,3.30
2018-05-27T10:41:25.680Z,3.40
2018-05-27T10:42:25.671Z,3.30
2018-05-27T10:43:25.681Z,3.90
2018-05-27T10:44:25.695Z,3.50
2018-05-27T10:45:25.698Z,3.20
2018-05-27T10:46:25.708Z,4.20
2018-05-27T10:47:25.722Z,3.50
2018-05-27T10:48:25.723Z,2.90
2018-05-27T10:49:25.733Z,3.90
2018-05-27T10:50:25.741Z,4.30
2018-05-27T10:51:25.749Z,3.80
2018-05-27T10:52:25.759Z,3.20
2018-05-27T10:53:25.766Z,3.10
2018-05-27T10:54:25.777Z,3.40
2018-05-27T10:55:25.784Z,3.50
2018-05-27T10:56:25.791Z,3.80
2018-05-27T10:57:25.799Z,3.30
2018-05-27T10:58:25.808Z,3.50
2018-05-27T10:59:25.816Z,3.90
2018-05-27T11:00:25.823Z,3.20
2018-05-27T11:01:25.831Z,3.70
2018-05-27T11:02:25.840Z,3.30
2018-05-27T11:03:25.850Z,3.50
2018-05-27T11:04:25.855Z,3.40
2018-05-27T11:05:25.864Z,4.10
2018-05-27T11:06:25.869Z,3.80
2018-05-27T11:07:25.878Z,4.40
2018-05-27T11:08:25.886Z,3.70
2018-05-27T11:09:25.895Z,3.80
2018-05-27T11:10:25.900Z,3.00
2018-05-27T11:11:25.908Z,4.10
2018-05-27T11:12:25.914Z,3.20
2018-05-27T11:13:25.933Z,3.10
2018-05-27T11:14:25.931Z,3.60
2018-05-27T11:15:25.938Z,3.60
2018-05-27T11:16:25.945Z,3.30
2018-05-27T11:17:25.952Z,3.10
2018-05-27T11:18:25.960Z,4.20
2018-05-27T11:19:25.966Z,3.60
2018-05-27T11:20:25.976Z,3.20
2018-05-27T11:21:25.980Z,3.60
2018-05-27T11:22:25.989Z,3.60
2018-05-27T11:23:25.999Z,3.50
2018-05-27T11:24:26.002Z,3.20
2018-05-27T11:25:26.010Z,3.60
2018-05-27T11:26:26.016Z,2.90
2018-05-27T11:27:26.024Z,3.60
2018-05-27T11:28:26.029Z,3.30
2018-05-27T11:29:26.044Z,3.60
2018-05-27T11:30:26.047Z,3.20
2018-05-27T11:31:26.052Z,3.60
2018-05-27T11:32:26.060Z,3.90
2018-05-27T11:33:26.066Z,3.20
2018-05-27T11:34:26.076Z,3.50
2018-05-27T11:35:26.079Z,3.20
2018-05-27T11:36:26.085Z,3.00
2018-05-27T11:37:26.093Z,3.60
2018-05-27T11:38:26.100Z,3.60
2018-05-27T11:39:26.106Z,3.80
2018-05-27T11:40:26.114Z,3.10
2018-05-27T11:41:26.122Z,3.20
2018-05-27T11:42:26.159Z,3.20
2018-05-27T11:43:26.135Z,3.30
2018-05-27T11:44:26.144Z,3.00
2018-05-27T11:45:26.151Z,3.70
2018-05-27T11:46:26.158Z,3.10
2018-05-27T11:47:26.167Z,3.60
2018-05-27T11:48:26.173Z,2.90
2018-05-27T11:49:26.181Z,3.50
2018-05-27T11:50:26.312Z,3.30
2018-05-27T11:51:26.198Z,3.40
2018-05-27T11:52:26.206Z,3.20
2018-05-27T11:53:26.216Z,3.10
2018-05-27T11:54:26.224Z,3.60
2018-05-27T11:55:26.233Z,3.10
2018-05-27T11:56:26.243Z,2.70
2018-05-27T11:57:26.252Z,3.60
2018-05-27T11:58:26.261Z,2.80
2018-05-27T11:59:26.272Z,2.20
2018-05-27T12:00:26.282Z,2.90
2018-05-27T12:01:26.293Z,2.90
2018-05-27T12:03:26.314Z,2.50
2018-05-27T12:04:26.648Z,3.00
2018-05-27T12:05:26.634Z,2.80
2018-05-27T12:06:26.345Z,3.00
2018-05-27T12:07:26.356Z,2.50
2018-05-27T12:08:26.367Z,3.00
2018-05-27T12:09:26.467Z,2.70
2018-05-27T12:10:26.390Z,2.50
2018-05-27T12:11:26.400Z,3.60
2018-05-27T12:12:26.412Z,2.80
2018-05-27T12:13:26.423Z,2.80
2018-05-27T12:14:26.460Z,3.40
2018-05-27T12:15:26.445Z,2.60
2018-05-27T12:16:26.457Z,2.50
2018-05-27T12:17:26.469Z,2.60
2018-05-27T12:18:26.479Z,2.50
2018-05-27T12:19:26.492Z,2.30
2018-05-27T12:20:26.502Z,2.50
2018-05-27T12:21:26.515Z,3.00
2018-05-27T12:22:26.526Z,2.80
2018-05-27T12:23:26.536Z,2.70
2018-05-27T12:24:26.547Z,2.70
2018-05-27T12:25:26.559Z,2.30
2018-05-27T12:26:26.569Z,2.60
2018-05-27T12:27:26.579Z,2.50
2018-05-27T12:28:26.591Z,2.40
2018-05-27T12:29:26.605Z,2.40
2018-05-27T12:30:26.612Z,2.60
2018-05-27T12:31:26.624Z,2.10
2018-05-27T12:32:26.634Z,2.00
2018-05-27T12:33:26.647Z,2.40
2018-05-27T12:34:26.654Z,2.70
2018-05-27T12:35:26.665Z,2.50
2018-05-27T12:36:26.675Z,2.20
2018-05-27T12:37:26.686Z,2.20
2018-05-27T12:38:26.694Z,2.30
2018-05-27T12:39:26.704Z,2.50
2018-05-27T12:40:26.715Z,2.30
2018-05-27T12:41:26.724Z,2.40
2018-05-27T12:42:26.733Z,2.50
2018-05-27T12:43:26.741Z,2.40
2018-05-27T12:44:26.817Z,2.10
2018-05-27T12:45:26.758Z,2.70
2018-05-27T12:46:26.766Z,2.40
2018-05-27T12:47:26.775Z,2.40
2018-05-27T12:48:26.784Z,2.50
2018-05-27T12:49:26.793Z,2.10
2018-05-27T12:50:26.801Z,2.60
2018-05-27T12:51:26.808Z,2.50
2018-05-27T12:52:26.816Z,2.40
2018-05-27T12:53:26.829Z,2.80
2018-05-27T12:54:26.832Z,2.80
2018-05-27T12:55:26.841Z,2.70
2018-05-27T12:56:26.850Z,2.50
2018-05-27T12:57:26.859Z,2.60
2018-05-27T12:58:26.863Z,3.00
2018-05-27T12:59:26.871Z,2.80
2018-05-27T13:00:26.880Z,2.80
2018-05-27T13:01:26.888Z,2.40
2018-05-27T13:02:26.896Z,2.80
2018-05-27T13:03:26.905Z,2.10